Aeroporto :
LOGIN :

Iscrizione | Disclaimer

   EN    FR    IT 

 










Sommario :    VFR   VFR Marginale   IFR   IFR Intensivo   IFR Molto Intensivo
Visibilità : 
Base nubi : 
>= 8 km
>= 3000ft
5 / 8 km
1000 / 3000 ft
1500m / 5 km
500 / 1000 ft
800 / 1500m
200 / 500 ft
< 800m
< 200 ft
Simboli :   Temporali  Nebbia  Neve Forte  Precipitazioni Forti  Vento > 20 kt
SIGMETs :   Varie  Temporali  Ghiacco  Turbolenza  Onda orograficha  Ceneri Vulcaniche






- Altitudine del aeroporto : 1830 ft


EBLB - Butgenbach Elsenborn

ULTIMO METAR :
  • 282155Z AUTO 25003KT 3100 BR BKN002/// BKN010/// OVC012/// 05/05 Q1013 AMB

METARs OBSOLETI :
  • 282125Z AUTO 23003KT 4200 BR OVC004/// 05/05 Q1013 YLO
  • 282055Z AUTO 23003KT 7000 OVC004/// 05/05 Q1013 YLO
  • 282025Z AUTO VRB02KT 7000 BKN004/// BKN100/// 05/05 Q1012 YLO
  • 281955Z AUTO VRB02KT 7000 BR SCT005/// BKN100/// BKN120/// 04/04 Q1012 YLO
  • 281950Z AUTO VRB01KT 4400 BKN006/// BKN100/// BKN130/// 04/04 Q1012 YLO
  • 281925Z AUTO 27003KT 9999 BKN004/// 05/05 Q1012 YLO

Previsioni scadute.



MetMap, La meteo Aeronautica in un colpo d'occhio ! - Copyright ORBIFLY Dicembre 2007 - Disclaimer

ORBIFLY MET'MAP TEAM :

Programmazione e sviluppo : Alexandra Zaïnal
Concezione : Baudouin d'Aumeries
Supporto tecnico e logistico : Manuel Goepfert
Aiuto : Marc-Olivier Méhu
Aiuto per la traduzione : Arnaldo La Scala




FONTI E CREDITI :

   NOAA